createdAt,value
2022-12-31T00:01:26.519Z,92.87
2022-12-31T00:03:54.143Z,93.38
2022-12-31T00:06:25.459Z,93.39
2022-12-31T00:08:52.581Z,93.60
2022-12-31T00:11:19.033Z,93.74
2022-12-31T00:13:46.647Z,94.81
2022-12-31T00:16:15.028Z,94.13
2022-12-31T00:18:45.440Z,94.03
2022-12-31T00:21:12.330Z,93.28
2022-12-31T00:23:39.031Z,94.06
2022-12-31T00:26:12.985Z,93.95
2022-12-31T00:28:39.661Z,93.70
2022-12-31T00:31:08.091Z,93.40
2022-12-31T00:33:34.723Z,93.36
2022-12-31T00:36:20.311Z,93.77
2022-12-31T00:38:47.896Z,93.64
2022-12-31T00:41:14.831Z,94.44
2022-12-31T00:43:41.524Z,94.66
2022-12-31T00:46:08.527Z,94.04
2022-12-31T00:48:35.306Z,94.57
2022-12-31T00:51:02.427Z,94.95
2022-12-31T00:53:29.280Z,95.29
2022-12-31T00:56:01.524Z,95.62
2022-12-31T00:58:27.987Z,94.78
2022-12-31T01:00:54.458Z,95.06
2022-12-31T01:03:20.919Z,94.33
2022-12-31T01:05:47.303Z,94.23
2022-12-31T01:08:13.794Z,94.71
2022-12-31T01:10:58.701Z,94.53
2022-12-31T01:13:25.068Z,94.06
2022-12-31T01:15:51.566Z,94.13
2022-12-31T01:18:18.042Z,94.99
2022-12-31T01:20:44.684Z,94.53
2022-12-31T01:23:11.346Z,94.40
2022-12-31T01:25:38.743Z,95.37
2022-12-31T01:28:05.990Z,95.73
2022-12-31T01:30:32.782Z,96.27
2022-12-31T01:32:59.195Z,95.11
2022-12-31T01:35:25.653Z,95.00
2022-12-31T01:37:52.133Z,95.16
2022-12-31T01:40:18.532Z,95.10
2022-12-31T01:42:44.976Z,95.24
2022-12-31T01:45:12.610Z,95.41
2022-12-31T01:47:44.111Z,96.09
2022-12-31T01:50:30.761Z,95.84
2022-12-31T01:52:59.098Z,95.29
2022-12-31T01:55:28.293Z,95.45
2022-12-31T01:57:57.138Z,95.60
2022-12-31T02:00:23.680Z,95.46
2022-12-31T02:02:50.421Z,95.68
2022-12-31T02:05:24.486Z,96.10
2022-12-31T02:07:51.968Z,96.03
2022-12-31T02:10:18.419Z,96.14
2022-12-31T02:12:44.984Z,96.70
2022-12-31T02:15:11.490Z,96.75
2022-12-31T02:17:45.798Z,96.46
2022-12-31T02:20:12.159Z,97.16
2022-12-31T02:22:38.603Z,96.98
2022-12-31T02:25:14.261Z,97.26
2022-12-31T02:27:52.939Z,97.70
2022-12-31T02:30:23.552Z,97.76
2022-12-31T02:32:55.954Z,97.77
2022-12-31T02:35:36.150Z,98.10
2022-12-31T02:38:11.078Z,98.01
2022-12-31T02:40:38.588Z,97.77
2022-12-31T02:43:05.074Z,98.51
2022-12-31T02:45:36.999Z,99.01
2022-12-31T02:48:06.552Z,98.87
2022-12-31T02:50:39.110Z,99.12
2022-12-31T02:53:24.306Z,99.46
2022-12-31T02:56:11.372Z,99.58
2022-12-31T02:58:56.582Z,100.00
2022-12-31T03:01:45.172Z,100.00
2022-12-31T03:04:31.159Z,100.00
2022-12-31T03:06:59.728Z,100.00
2022-12-31T03:09:26.164Z,100.00
2022-12-31T03:12:11.563Z,100.00
2022-12-31T03:14:38.018Z,100.00
2022-12-31T03:17:04.494Z,99.64
2022-12-31T03:19:49.439Z,100.00
2022-12-31T03:22:27.828Z,100.00
2022-12-31T03:25:15.834Z,99.98
2022-12-31T03:27:42.949Z,100.00
2022-12-31T03:30:09.718Z,100.00
2022-12-31T03:32:36.165Z,100.00
2022-12-31T03:35:02.987Z,100.00
2022-12-31T03:37:29.440Z,100.00
2022-12-31T03:39:55.870Z,100.00
2022-12-31T03:42:22.347Z,100.00
2022-12-31T03:44:48.807Z,100.00
2022-12-31T03:47:15.249Z,100.00
2022-12-31T03:49:41.630Z,100.00
2022-12-31T03:52:08.753Z,100.00
2022-12-31T03:54:35.165Z,100.00
2022-12-31T03:57:01.748Z,100.00
2022-12-31T03:59:28.228Z,100.00
2022-12-31T04:01:54.828Z,100.00
2022-12-31T04:04:21.494Z,100.00
2022-12-31T04:06:48.070Z,100.00
2022-12-31T04:09:14.527Z,100.00
2022-12-31T04:11:40.987Z,100.00
2022-12-31T04:14:29.796Z,100.00
2022-12-31T04:16:56.315Z,100.00
2022-12-31T04:19:22.726Z,100.00
2022-12-31T04:21:49.144Z,100.00
2022-12-31T04:24:15.543Z,100.00
2022-12-31T04:26:43.751Z,100.00
2022-12-31T04:29:10.760Z,100.00
2022-12-31T04:31:37.276Z,100.00
2022-12-31T04:34:03.891Z,100.00
2022-12-31T04:36:30.625Z,100.00
2022-12-31T04:38:57.054Z,100.00
2022-12-31T04:41:24.089Z,100.00
2022-12-31T04:43:51.602Z,100.00
2022-12-31T04:46:19.594Z,100.00
2022-12-31T04:48:46.229Z,100.00
2022-12-31T04:51:13.538Z,100.00
2022-12-31T04:53:39.950Z,100.00
2022-12-31T04:56:06.989Z,99.93
2022-12-31T04:58:34.100Z,99.55
2022-12-31T05:01:00.916Z,99.18
2022-12-31T05:03:27.877Z,99.51
2022-12-31T05:05:54.783Z,99.48
2022-12-31T05:08:21.229Z,98.68
2022-12-31T05:10:49.191Z,98.35
2022-12-31T05:13:16.060Z,96.84
2022-12-31T05:15:42.865Z,96.48
2022-12-31T05:18:09.406Z,97.23
2022-12-31T05:20:35.776Z,96.99
2022-12-31T05:23:02.318Z,96.87
2022-12-31T05:25:28.729Z,96.54
2022-12-31T05:27:55.149Z,95.36
2022-12-31T05:30:21.668Z,95.21
2022-12-31T05:32:48.098Z,94.26
2022-12-31T05:35:14.439Z,94.15
2022-12-31T05:37:40.882Z,94.09
2022-12-31T05:40:07.733Z,94.76
2022-12-31T05:42:34.192Z,94.71
2022-12-31T05:45:00.694Z,94.91
2022-12-31T05:47:27.322Z,94.41
2022-12-31T05:49:53.951Z,94.89
2022-12-31T05:52:20.481Z,94.65
2022-12-31T05:54:46.867Z,94.84
2022-12-31T05:57:13.346Z,95.44
2022-12-31T05:59:39.698Z,95.61
2022-12-31T06:02:06.103Z,95.96
2022-12-31T06:04:32.457Z,95.88
2022-12-31T06:06:58.865Z,96.35
2022-12-31T06:09:25.216Z,95.54
2022-12-31T06:11:51.657Z,95.80
2022-12-31T06:14:18.279Z,95.47
2022-12-31T06:16:44.675Z,95.19
2022-12-31T06:19:11.100Z,95.28
2022-12-31T06:21:37.738Z,95.28
2022-12-31T06:24:04.406Z,94.83
2022-12-31T06:26:30.911Z,93.77
2022-12-31T06:28:57.320Z,94.30
2022-12-31T06:31:23.795Z,94.11
2022-12-31T06:33:50.211Z,93.86
2022-12-31T06:36:16.895Z,94.05
2022-12-31T06:38:43.691Z,94.06
2022-12-31T06:41:11.492Z,93.22
2022-12-31T06:43:38.488Z,93.02
2022-12-31T06:46:06.086Z,92.08
2022-12-31T06:48:32.531Z,92.21
2022-12-31T06:51:05.827Z,91.98
2022-12-31T06:53:32.441Z,92.49
2022-12-31T06:55:59.164Z,92.77
2022-12-31T06:58:25.753Z,92.68
2022-12-31T07:01:03.255Z,92.26
2022-12-31T07:03:41.742Z,92.33
2022-12-31T07:06:11.298Z,92.83
2022-12-31T07:08:37.679Z,92.79
2022-12-31T07:11:23.890Z,92.71
2022-12-31T07:14:03.572Z,93.01
2022-12-31T07:16:35.623Z,92.57
2022-12-31T07:19:10.009Z,92.04
2022-12-31T07:21:37.868Z,91.54
2022-12-31T07:24:08.462Z,91.75
2022-12-31T07:26:56.867Z,91.77
2022-12-31T07:29:38.789Z,91.87
2022-12-31T07:32:11.067Z,91.50
2022-12-31T07:34:52.758Z,91.10
2022-12-31T07:37:39.191Z,91.54
2022-12-31T07:40:20.614Z,91.29
2022-12-31T07:43:05.612Z,90.74
2022-12-31T07:45:48.578Z,90.27
2022-12-31T07:48:23.333Z,90.17
2022-12-31T07:50:50.289Z,89.68
2022-12-31T07:53:16.955Z,90.12
2022-12-31T07:55:43.950Z,88.92
2022-12-31T07:58:22.207Z,88.06
2022-12-31T08:00:48.641Z,87.41
2022-12-31T08:03:24.306Z,87.73
2022-12-31T08:05:50.670Z,88.09
2022-12-31T08:08:37.304Z,88.60
2022-12-31T08:11:16.011Z,87.20
2022-12-31T08:13:42.770Z,86.35
2022-12-31T08:16:12.908Z,86.83
2022-12-31T08:18:39.681Z,85.57
2022-12-31T08:21:35.072Z,85.44
2022-12-31T08:24:04.392Z,83.23
2022-12-31T08:26:37.055Z,83.05
2022-12-31T08:29:29.417Z,82.77
2022-12-31T08:32:00.079Z,82.66
2022-12-31T08:34:29.542Z,83.06
2022-12-31T08:37:01.655Z,82.79
2022-12-31T08:39:46.680Z,82.45
2022-12-31T08:42:25.825Z,82.49
2022-12-31T08:44:59.399Z,82.18
2022-12-31T08:47:44.541Z,81.72
2022-12-31T08:50:15.544Z,81.57
2022-12-31T08:52:42.029Z,81.30
2022-12-31T08:55:12.143Z,82.44
2022-12-31T08:57:57.102Z,82.06
2022-12-31T09:00:23.859Z,81.73
2022-12-31T09:02:50.227Z,81.95
2022-12-31T09:05:22.148Z,81.25
2022-12-31T09:07:54.954Z,81.21
2022-12-31T09:10:25.160Z,81.39
2022-12-31T09:13:05.398Z,81.18
2022-12-31T09:15:31.838Z,80.55
2022-12-31T09:17:58.420Z,80.35
2022-12-31T09:20:36.301Z,80.13
2022-12-31T09:23:08.776Z,79.72
2022-12-31T09:25:40.172Z,79.84
2022-12-31T09:28:18.048Z,80.12
2022-12-31T09:31:03.260Z,79.81
2022-12-31T09:33:42.557Z,79.59
2022-12-31T09:36:13.123Z,79.43
2022-12-31T09:38:52.383Z,79.32
2022-12-31T09:41:42.090Z,79.14
2022-12-31T09:44:26.751Z,78.56
2022-12-31T09:47:19.208Z,77.67
2022-12-31T09:49:54.346Z,77.53
2022-12-31T09:52:27.211Z,77.74
2022-12-31T09:55:13.839Z,77.75
2022-12-31T09:58:05.429Z,77.56
2022-12-31T10:00:47.016Z,77.69
2022-12-31T10:03:16.445Z,77.48
2022-12-31T10:05:52.717Z,77.01
2022-12-31T10:08:19.069Z,76.71
2022-12-31T10:10:57.519Z,75.90
2022-12-31T10:13:36.714Z,76.71
2022-12-31T10:16:18.280Z,75.81
2022-12-31T10:18:44.676Z,75.93
2022-12-31T10:21:23.032Z,76.13
2022-12-31T10:23:54.727Z,75.99
2022-12-31T10:26:53.416Z,76.02
2022-12-31T10:29:23.535Z,75.88
2022-12-31T10:31:55.949Z,76.61
2022-12-31T10:34:22.307Z,77.00
2022-12-31T10:36:54.858Z,76.48
2022-12-31T10:39:28.078Z,76.20
2022-12-31T10:42:05.028Z,76.09
2022-12-31T10:44:44.379Z,75.63
2022-12-31T10:47:24.644Z,75.48
2022-12-31T10:50:10.073Z,75.21
2022-12-31T10:52:50.380Z,75.45
2022-12-31T10:55:19.806Z,75.38
2022-12-31T10:58:08.310Z,75.49
2022-12-31T11:00:41.162Z,75.18
2022-12-31T11:03:25.174Z,75.78
2022-12-31T11:06:14.297Z,76.30
2022-12-31T11:09:08.534Z,75.84
2022-12-31T11:11:55.197Z,76.52
2022-12-31T11:14:45.063Z,76.05
2022-12-31T11:17:11.418Z,76.19
2022-12-31T11:19:51.624Z,75.95
2022-12-31T11:22:36.105Z,76.33
2022-12-31T11:25:05.858Z,76.36
2022-12-31T11:27:51.227Z,76.50
2022-12-31T11:30:26.889Z,76.28
2022-12-31T11:33:17.115Z,76.61
2022-12-31T11:35:51.230Z,76.74
2022-12-31T11:38:23.024Z,76.84
2022-12-31T11:40:55.229Z,76.29
2022-12-31T11:43:27.960Z,76.00
2022-12-31T11:46:12.935Z,76.92
2022-12-31T11:49:02.163Z,76.18
2022-12-31T11:51:39.030Z,76.56
2022-12-31T11:54:05.405Z,76.49
2022-12-31T11:56:34.586Z,76.75
2022-12-31T11:59:06.137Z,76.62
2022-12-31T12:01:41.771Z,76.34
2022-12-31T12:04:09.482Z,76.00
2022-12-31T12:06:36.007Z,75.84
2022-12-31T12:09:07.577Z,75.71
2022-12-31T12:11:39.371Z,75.50
2022-12-31T12:14:21.380Z,75.31
2022-12-31T12:16:52.849Z,75.86
2022-12-31T12:19:19.404Z,75.19
2022-12-31T12:21:47.676Z,74.91
2022-12-31T12:24:19.489Z,74.41
2022-12-31T12:26:45.914Z,74.16
2022-12-31T12:29:15.085Z,73.55
2022-12-31T12:31:41.994Z,73.61
2022-12-31T12:34:25.308Z,72.94
2022-12-31T12:36:52.054Z,72.67
2022-12-31T12:39:23.193Z,73.14
2022-12-31T12:42:05.042Z,72.93
2022-12-31T12:44:32.165Z,73.40
2022-12-31T12:46:59.496Z,72.92
2022-12-31T12:49:27.649Z,73.44
2022-12-31T12:51:54.145Z,72.37
2022-12-31T12:54:39.337Z,72.67
2022-12-31T12:57:17.321Z,72.65
2022-12-31T13:00:04.646Z,72.16
2022-12-31T13:02:48.827Z,72.04
2022-12-31T13:05:33.947Z,73.00
2022-12-31T13:08:12.468Z,72.51
2022-12-31T13:10:59.247Z,72.16
2022-12-31T13:13:32.498Z,72.14
2022-12-31T13:16:04.685Z,71.89
2022-12-31T13:18:41.807Z,72.38
2022-12-31T13:21:22.807Z,72.38
2022-12-31T13:23:59.159Z,73.36
2022-12-31T13:26:34.454Z,73.28
2022-12-31T13:29:02.476Z,73.15
2022-12-31T13:31:34.536Z,73.72
2022-12-31T13:34:17.967Z,73.49
2022-12-31T13:36:45.998Z,73.72
2022-12-31T13:39:29.589Z,73.43
2022-12-31T13:42:02.480Z,73.70
2022-12-31T13:44:42.437Z,73.65
2022-12-31T13:47:22.715Z,73.50
2022-12-31T13:49:52.711Z,73.95
2022-12-31T13:52:19.221Z,73.59
2022-12-31T13:54:54.644Z,73.70
2022-12-31T13:57:44.876Z,74.06
2022-12-31T14:00:19.212Z,74.18
2022-12-31T14:03:04.454Z,73.97
2022-12-31T14:05:36.865Z,74.38
2022-12-31T14:08:04.928Z,75.25
2022-12-31T14:10:51.605Z,75.17
2022-12-31T14:13:36.824Z,75.26
2022-12-31T14:16:22.729Z,74.65
2022-12-31T14:18:49.151Z,74.83
2022-12-31T14:21:23.396Z,74.65
2022-12-31T14:23:57.939Z,74.80
2022-12-31T14:26:28.308Z,74.58
2022-12-31T14:29:02.496Z,75.08
2022-12-31T14:31:31.997Z,75.22
2022-12-31T14:34:13.405Z,75.35
2022-12-31T14:36:39.768Z,75.63
2022-12-31T14:39:26.501Z,75.60
2022-12-31T14:42:00.995Z,76.07
2022-12-31T14:44:33.445Z,75.39
2022-12-31T14:47:00.036Z,75.05
2022-12-31T14:49:26.453Z,76.05
2022-12-31T14:51:52.891Z,75.08
2022-12-31T14:54:28.942Z,74.97
2022-12-31T14:56:55.656Z,75.98
2022-12-31T14:59:26.874Z,75.49
2022-12-31T15:01:54.185Z,75.29
2022-12-31T15:04:51.359Z,75.34
2022-12-31T15:07:30.234Z,75.03
2022-12-31T15:10:02.957Z,74.86
2022-12-31T15:12:43.213Z,74.51
2022-12-31T15:15:17.611Z,74.38
2022-12-31T15:18:02.872Z,74.88
2022-12-31T15:20:49.517Z,74.45
2022-12-31T15:23:23.280Z,74.64
2022-12-31T15:25:53.664Z,74.31
2022-12-31T15:28:28.176Z,74.46
2022-12-31T15:30:56.564Z,74.29
2022-12-31T15:33:30.292Z,74.82
2022-12-31T15:35:57.207Z,74.40
2022-12-31T15:38:34.405Z,74.28
2022-12-31T15:41:01.409Z,74.32
2022-12-31T15:43:31.259Z,75.00
2022-12-31T15:45:57.798Z,75.03
2022-12-31T15:48:31.206Z,75.13
2022-12-31T15:50:59.125Z,75.29
2022-12-31T15:53:38.567Z,74.51
2022-12-31T15:56:05.885Z,74.37
2022-12-31T15:58:35.870Z,74.90
2022-12-31T16:01:13.014Z,74.75
2022-12-31T16:03:43.688Z,74.33
2022-12-31T16:06:11.981Z,74.67
2022-12-31T16:08:38.785Z,74.63
2022-12-31T16:11:06.246Z,75.02
2022-12-31T16:13:35.057Z,74.88
2022-12-31T16:16:06.255Z,75.13
2022-12-31T16:18:38.570Z,74.88
2022-12-31T16:21:05.599Z,74.52
2022-12-31T16:23:32.827Z,75.26
2022-12-31T16:26:01.987Z,74.95
2022-12-31T16:28:30.613Z,74.76
2022-12-31T16:31:00.226Z,73.91
2022-12-31T16:33:26.742Z,74.98
2022-12-31T16:35:57.737Z,74.27
2022-12-31T16:38:31.379Z,74.30
2022-12-31T16:41:00.555Z,74.42
2022-12-31T16:43:27.069Z,75.17
2022-12-31T16:45:55.546Z,74.41
2022-12-31T16:48:22.042Z,74.46
2022-12-31T16:50:50.650Z,74.76
2022-12-31T16:53:19.841Z,74.95
2022-12-31T16:55:54.821Z,74.70
2022-12-31T16:58:29.503Z,74.54
2022-12-31T17:00:59.772Z,74.54
2022-12-31T17:03:28.226Z,74.97
2022-12-31T17:05:54.635Z,75.53
2022-12-31T17:08:40.035Z,75.93
2022-12-31T17:11:23.088Z,76.33
2022-12-31T17:13:53.262Z,76.60
2022-12-31T17:16:20.155Z,76.54
2022-12-31T17:18:47.893Z,76.34
2022-12-31T17:21:14.521Z,75.89
2022-12-31T17:23:41.457Z,75.65
2022-12-31T17:26:11.059Z,75.24
2022-12-31T17:28:40.905Z,76.10
2022-12-31T17:31:26.234Z,76.20
2022-12-31T17:33:53.881Z,75.58
2022-12-31T17:36:22.255Z,75.55
2022-12-31T17:38:48.807Z,75.53
2022-12-31T17:41:16.968Z,74.86
2022-12-31T17:43:43.582Z,74.64
2022-12-31T17:46:11.519Z,74.81
2022-12-31T17:48:38.098Z,75.20
2022-12-31T17:51:04.622Z,74.81
2022-12-31T17:53:30.969Z,74.69
2022-12-31T17:56:00.196Z,74.09
2022-12-31T17:58:31.881Z,73.53
2022-12-31T18:00:58.873Z,73.25
2022-12-31T18:03:25.376Z,74.19
2022-12-31T18:05:51.993Z,73.78
2022-12-31T18:08:18.363Z,73.76
2022-12-31T18:10:44.964Z,74.16
2022-12-31T18:13:17.428Z,74.50
2022-12-31T18:15:44.093Z,74.36
2022-12-31T18:18:29.746Z,74.44
2022-12-31T18:21:07.994Z,74.55
2022-12-31T18:23:42.230Z,74.58
2022-12-31T18:26:12.738Z,74.60
2022-12-31T18:28:39.211Z,75.00
2022-12-31T18:31:05.726Z,74.46
2022-12-31T18:33:32.181Z,74.58
2022-12-31T18:36:08.711Z,75.05
2022-12-31T18:38:35.579Z,76.02
2022-12-31T18:41:02.005Z,76.19
2022-12-31T18:43:28.390Z,76.29
2022-12-31T18:45:54.884Z,76.68
2022-12-31T18:48:21.321Z,75.26
2022-12-31T18:50:48.277Z,75.12
2022-12-31T18:53:16.563Z,75.44
2022-12-31T18:55:45.622Z,75.22
2022-12-31T18:58:12.101Z,74.81
2022-12-31T19:00:38.725Z,75.20
2022-12-31T19:03:05.607Z,75.30
2022-12-31T19:05:33.914Z,73.89
2022-12-31T19:08:00.573Z,74.25
2022-12-31T19:10:27.705Z,73.63
2022-12-31T19:12:54.277Z,73.35
2022-12-31T19:15:20.609Z,73.41
2022-12-31T19:17:46.995Z,73.99
2022-12-31T19:20:13.460Z,72.78
2022-12-31T19:22:39.887Z,72.64
2022-12-31T19:25:20.489Z,73.38
2022-12-31T19:27:46.952Z,72.79
2022-12-31T19:30:16.676Z,71.79
2022-12-31T19:32:43.088Z,71.97
2022-12-31T19:35:11.502Z,71.88
2022-12-31T19:37:37.884Z,72.04
2022-12-31T19:40:04.584Z,72.09
2022-12-31T19:42:31.043Z,71.55
2022-12-31T19:44:57.459Z,71.57
2022-12-31T19:47:23.915Z,71.65
2022-12-31T19:49:50.299Z,71.22
2022-12-31T19:52:16.701Z,70.75
2022-12-31T19:54:43.185Z,71.01
2022-12-31T19:57:09.602Z,70.76
2022-12-31T19:59:36.042Z,69.97
2022-12-31T20:02:03.023Z,69.87
2022-12-31T20:04:29.521Z,69.60
2022-12-31T20:06:55.899Z,69.63
2022-12-31T20:09:22.274Z,69.78
2022-12-31T20:11:48.655Z,69.96
2022-12-31T20:14:15.094Z,69.75
2022-12-31T20:16:41.567Z,69.65
2022-12-31T20:19:09.460Z,69.36
2022-12-31T20:21:36.493Z,68.98
2022-12-31T20:24:02.866Z,69.39
2022-12-31T20:26:29.218Z,69.13
2022-12-31T20:28:55.606Z,69.86
2022-12-31T20:31:25.202Z,69.51
2022-12-31T20:33:53.640Z,69.58
2022-12-31T20:36:20.094Z,69.81
2022-12-31T20:38:46.733Z,70.05
2022-12-31T20:41:15.230Z,70.45
2022-12-31T20:43:42.060Z,68.92
2022-12-31T20:46:14.945Z,68.14
2022-12-31T20:48:42.622Z,68.00
2022-12-31T20:51:09.037Z,67.85
2022-12-31T20:53:35.604Z,67.99
2022-12-31T20:56:05.632Z,67.24
2022-12-31T20:58:32.021Z,67.33
2022-12-31T21:00:58.604Z,66.81
2022-12-31T21:04:02.916Z,67.63
2022-12-31T21:06:11.958Z,67.55
2022-12-31T21:08:38.464Z,66.51
2022-12-31T21:11:24.918Z,66.59
2022-12-31T21:13:51.448Z,66.27
2022-12-31T21:16:18.135Z,67.03
2022-12-31T21:18:44.542Z,67.20
2022-12-31T21:21:11.184Z,66.81
2022-12-31T21:23:37.780Z,66.48
2022-12-31T21:26:04.268Z,66.40
2022-12-31T21:28:30.629Z,65.73
2022-12-31T21:31:01.274Z,66.15
2022-12-31T21:33:27.871Z,66.57
2022-12-31T21:35:56.511Z,65.96
2022-12-31T21:38:25.377Z,65.64
2022-12-31T21:40:51.800Z,65.77
2022-12-31T21:43:18.184Z,66.60
2022-12-31T21:45:44.736Z,65.96
2022-12-31T21:48:22.363Z,66.26
2022-12-31T21:50:50.043Z,64.92
2022-12-31T21:53:23.459Z,64.97
2022-12-31T21:56:10.112Z,63.94
2022-12-31T21:59:14.795Z,63.76
2022-12-31T22:02:00.161Z,63.77
2022-12-31T22:07:13.139Z,61.46
2022-12-31T22:09:39.568Z,60.71
2022-12-31T22:12:06.069Z,60.42
2022-12-31T22:14:32.440Z,58.51
2022-12-31T22:16:58.832Z,57.63
2022-12-31T22:19:26.008Z,57.11
2022-12-31T22:21:52.470Z,57.72
2022-12-31T22:24:18.866Z,57.74
2022-12-31T22:26:46.967Z,55.43
2022-12-31T22:29:13.546Z,55.85
2022-12-31T22:31:39.989Z,55.50
2022-12-31T22:34:06.487Z,55.06
2022-12-31T22:36:32.878Z,55.49
2022-12-31T22:38:59.419Z,55.62
2022-12-31T22:41:27.100Z,56.11
2022-12-31T22:44:02.600Z,55.61
2022-12-31T22:46:30.338Z,56.39
2022-12-31T22:48:57.871Z,57.39
2022-12-31T22:51:24.371Z,56.50
2022-12-31T22:53:50.724Z,56.92
2022-12-31T22:56:18.727Z,56.62
2022-12-31T22:58:45.620Z,57.14
2022-12-31T23:01:17.016Z,57.18
2022-12-31T23:03:43.549Z,58.21
2022-12-31T23:06:09.991Z,58.14
2022-12-31T23:08:36.441Z,58.28
2022-12-31T23:11:05.912Z,58.85
2022-12-31T23:13:55.635Z,58.42
2022-12-31T23:16:40.970Z,58.32
2022-12-31T23:19:26.729Z,58.35
2022-12-31T23:22:11.578Z,58.87
2022-12-31T23:24:38.206Z,59.18
2022-12-31T23:27:05.219Z,60.29
2022-12-31T23:29:31.915Z,60.51
2022-12-31T23:31:58.405Z,60.73
2022-12-31T23:34:24.843Z,60.08
2022-12-31T23:36:51.233Z,61.48
2022-12-31T23:39:17.602Z,61.83
2022-12-31T23:41:43.980Z,61.08
2022-12-31T23:44:12.191Z,61.71
2022-12-31T23:46:39.234Z,61.49
2022-12-31T23:49:05.884Z,61.37
2022-12-31T23:51:32.943Z,61.38
2022-12-31T23:53:59.297Z,61.53
2022-12-31T23:56:25.833Z,62.56
2022-12-31T23:58:59.223Z,62.17
